createdAt,value
2022-10-27T00:00:31.272Z,95.6
2022-10-27T00:01:47.541Z,97
2022-10-27T00:03:02.870Z,96.8
2022-10-27T00:04:19.167Z,96.4
2022-10-27T00:05:35.453Z,96.2
2022-10-27T00:06:51.745Z,95.8
2022-10-27T00:08:08.033Z,95.7
2022-10-27T00:09:24.327Z,95.3
2022-10-27T00:10:40.624Z,95.2
2022-10-27T00:11:56.927Z,95.6
2022-10-27T00:13:13.214Z,96
2022-10-27T00:14:29.525Z,96.2
2022-10-27T00:15:45.802Z,96.3
2022-10-27T00:17:02.092Z,96.6
2022-10-27T00:18:18.387Z,96.5
2022-10-27T00:19:33.703Z,96.2
2022-10-27T00:20:50.002Z,95.8
2022-10-27T00:22:06.299Z,95.4
2022-10-27T00:23:22.578Z,95.6
2022-10-27T00:24:38.886Z,95.5
2022-10-27T00:25:55.175Z,95.2
2022-10-27T00:27:11.471Z,95.4
2022-10-27T00:28:27.779Z,95.7
2022-10-27T00:29:44.069Z,96.1
2022-10-27T00:31:00.354Z,96.1
2022-10-27T00:32:16.646Z,96.1
2022-10-27T00:33:32.951Z,95.8
2022-10-27T00:34:49.243Z,95.3
2022-10-27T00:36:04.542Z,95.5
2022-10-27T00:37:20.836Z,95.8
2022-10-27T00:38:37.140Z,95.9
2022-10-27T00:39:53.427Z,96
2022-10-27T00:41:09.727Z,96
2022-10-27T00:42:26.008Z,95.9
2022-10-27T00:43:42.309Z,96.1
2022-10-27T00:44:58.594Z,96.1
2022-10-27T00:46:14.894Z,95.9
2022-10-27T00:47:31.189Z,95.7
2022-10-27T00:48:47.483Z,95.5
2022-10-27T00:50:03.777Z,95.4
2022-10-27T00:51:20.065Z,95.2
2022-10-27T00:52:35.384Z,95.1
2022-10-27T00:53:51.681Z,95.4
2022-10-27T00:55:07.000Z,95.7
2022-10-27T00:56:24.257Z,95.7
2022-10-27T00:57:40.568Z,96
2022-10-27T00:58:56.869Z,96
2022-10-27T01:00:13.151Z,96.3
2022-10-27T01:01:29.448Z,96
2022-10-27T01:02:45.741Z,95.7
2022-10-27T01:04:02.038Z,95.7
2022-10-27T01:05:18.324Z,95.5
2022-10-27T01:06:34.623Z,95.6
2022-10-27T01:07:50.912Z,95.5
2022-10-27T01:09:06.230Z,95.4
2022-10-27T01:10:22.520Z,95.5
2022-10-27T01:11:38.822Z,95.4
2022-10-27T01:12:55.110Z,95.2
2022-10-27T01:14:11.395Z,95.5
2022-10-27T01:15:27.684Z,95.8
2022-10-27T01:16:43.989Z,95.1
2022-10-27T01:18:00.284Z,95
2022-10-27T01:19:16.579Z,94.8
2022-10-27T01:20:32.870Z,94.6
2022-10-27T01:21:49.165Z,95
2022-10-27T01:23:05.477Z,94.9
2022-10-27T01:24:21.744Z,95.1
2022-10-27T01:25:37.053Z,95.7
2022-10-27T01:26:53.356Z,96
2022-10-27T01:28:09.640Z,96.4
2022-10-27T01:29:25.951Z,96.5
2022-10-27T01:30:42.237Z,97
2022-10-27T01:31:58.537Z,96.8
2022-10-27T01:33:14.827Z,96.7
2022-10-27T01:34:31.120Z,96.8
2022-10-27T01:35:47.433Z,97.3
2022-10-27T01:37:03.714Z,97.8
2022-10-27T01:38:20.010Z,97.3
2022-10-27T01:39:36.287Z,97.3
2022-10-27T01:40:52.591Z,97.1
2022-10-27T01:42:07.899Z,97
2022-10-27T01:43:24.201Z,96.8
2022-10-27T01:44:40.482Z,96.7
2022-10-27T01:45:56.780Z,96.7
2022-10-27T01:47:13.086Z,96.5
2022-10-27T01:48:29.380Z,97
2022-10-27T01:49:45.658Z,96.8
2022-10-27T01:51:01.972Z,96.5
2022-10-27T01:52:18.251Z,96
2022-10-27T01:53:34.539Z,95.8
2022-10-27T01:54:50.837Z,95.6
2022-10-27T01:56:07.132Z,95.6
2022-10-27T01:57:23.439Z,95.6
2022-10-27T01:58:38.748Z,95.3
2022-10-27T01:59:55.046Z,95.2
2022-10-27T02:01:11.338Z,95
2022-10-27T02:02:27.629Z,94.6
2022-10-27T02:03:43.926Z,94.2
2022-10-27T02:05:00.218Z,94.2
2022-10-27T02:06:16.508Z,94.3
2022-10-27T02:07:32.801Z,94.7
2022-10-27T02:08:49.089Z,95.6
2022-10-27T02:10:05.403Z,96.4
2022-10-27T02:11:21.676Z,96.7
2022-10-27T02:12:37.975Z,96.4
2022-10-27T02:13:54.274Z,96.2
2022-10-27T02:15:09.588Z,95.8
2022-10-27T02:16:25.871Z,95.4
2022-10-27T02:17:42.191Z,95.5
2022-10-27T02:18:58.457Z,95.5
2022-10-27T02:20:14.763Z,96.2
2022-10-27T02:21:31.045Z,96.7
2022-10-27T02:22:46.378Z,96.7
2022-10-27T02:24:02.669Z,96.4
2022-10-27T02:25:18.950Z,96.1
2022-10-27T02:26:35.246Z,95.8
2022-10-27T02:27:51.546Z,95.3
2022-10-27T02:29:07.840Z,95.3
2022-10-27T02:30:24.142Z,95.2
2022-10-27T02:31:40.426Z,95.6
2022-10-27T02:32:56.729Z,96
2022-10-27T02:34:13.008Z,96.5
2022-10-27T02:35:29.316Z,96.6
2022-10-27T02:36:45.604Z,96.7
2022-10-27T02:38:01.905Z,97
2022-10-27T02:39:17.206Z,96.6
2022-10-27T02:40:33.509Z,96.4
2022-10-27T02:41:49.802Z,96.3
2022-10-27T02:43:06.000Z,95.9
2022-10-27T02:44:22.387Z,95.6
2022-10-27T02:45:38.689Z,96.4
2022-10-27T02:46:54.973Z,96.6
2022-10-27T02:48:11.265Z,96.8
2022-10-27T02:49:27.553Z,97
2022-10-27T02:50:43.858Z,97
2022-10-27T02:52:00.153Z,96.7
2022-10-27T02:53:16.448Z,96.7
2022-10-27T02:54:32.750Z,98.4
2022-10-27T02:55:49.030Z,99
2022-10-27T02:57:04.346Z,99.5
2022-10-27T02:58:20.631Z,99.6
2022-10-27T02:59:36.929Z,100
2022-10-27T03:00:53.233Z,99.8
2022-10-27T03:02:09.521Z,99
2022-10-27T03:03:25.805Z,98.5
2022-10-27T03:04:42.000Z,98.5
2022-10-27T03:05:58.406Z,97.9
2022-10-27T03:07:14.690Z,97
2022-10-27T03:08:30.998Z,96.3
2022-10-27T03:09:47.274Z,95.9
2022-10-27T03:11:03.581Z,95.8
2022-10-27T03:12:19.867Z,97.1
2022-10-27T03:13:35.179Z,97.3
2022-10-27T03:14:51.483Z,97.8
2022-10-27T03:16:07.773Z,98.6
2022-10-27T03:17:24.066Z,99
2022-10-27T03:18:40.357Z,98.5
2022-10-27T03:19:56.643Z,97.7
2022-10-27T03:21:12.937Z,97
2022-10-27T03:22:29.241Z,95.8
2022-10-27T03:23:45.539Z,95.3
2022-10-27T03:26:18.130Z,95.2
2022-10-27T03:27:34.417Z,95.4
2022-10-27T03:28:50.714Z,95.3
2022-10-27T03:30:06.023Z,95.1
2022-10-27T03:31:22.321Z,95.2
2022-10-27T03:32:38.605Z,95.7
2022-10-27T03:33:54.899Z,96.4
2022-10-27T03:35:11.192Z,96.8
2022-10-27T03:36:27.499Z,97.3
2022-10-27T03:37:43.780Z,97.3
2022-10-27T03:39:00.073Z,97.6
2022-10-27T03:40:16.382Z,97.8
2022-10-27T03:41:32.676Z,98.7
2022-10-27T03:44:05.259Z,98.8
2022-10-27T03:45:21.552Z,98.2
2022-10-27T03:46:36.865Z,97.9
2022-10-27T03:47:53.157Z,97.3
2022-10-27T03:49:09.458Z,96.5
2022-10-27T03:50:25.742Z,96.5
2022-10-27T03:51:42.035Z,96.4
2022-10-27T03:52:58.336Z,96.1
2022-10-27T03:54:14.624Z,95.9
2022-10-27T03:55:30.935Z,95.8
2022-10-27T03:56:47.227Z,95.5
2022-10-27T03:58:03.518Z,95.3
2022-10-27T03:59:19.797Z,95.1
2022-10-27T04:00:36.101Z,95.4
2022-10-27T04:01:52.397Z,97.4
2022-10-27T04:03:07.694Z,97.9
2022-10-27T04:04:23.994Z,98.5
2022-10-27T04:05:40.302Z,98.7
2022-10-27T04:06:56.601Z,99.2
2022-10-27T04:08:12.885Z,99.3
2022-10-27T04:09:29.192Z,98.7
2022-10-27T04:10:45.477Z,98.3
2022-10-27T04:12:01.758Z,98.3
2022-10-27T04:13:18.065Z,99.7
2022-10-27T04:14:34.347Z,100
2022-10-27T04:15:50.635Z,100
2022-10-27T04:17:06.933Z,100
2022-10-27T04:18:23.231Z,100
2022-10-27T04:19:38.556Z,98.8
2022-10-27T04:20:54.840Z,98
2022-10-27T04:22:11.152Z,97.2
2022-10-27T04:23:27.442Z,96.8
2022-10-27T04:24:43.735Z,96.5
2022-10-27T04:26:00.019Z,96.5
2022-10-27T04:27:16.309Z,96.6
2022-10-27T04:28:32.602Z,96.6
2022-10-27T04:29:48.889Z,96.6
2022-10-27T04:31:05.198Z,96.5
2022-10-27T04:32:21.485Z,96.4
2022-10-27T04:33:37.784Z,96.5
2022-10-27T04:34:54.091Z,97
2022-10-27T04:36:09.388Z,98
2022-10-27T04:37:25.680Z,98.6
2022-10-27T04:38:41.967Z,98.3
2022-10-27T04:39:58.267Z,98.8
2022-10-27T04:41:14.562Z,98.8
2022-10-27T04:42:30.863Z,98.3
2022-10-27T04:43:47.170Z,98
2022-10-27T04:45:03.434Z,97.8
2022-10-27T04:46:19.728Z,97.3
2022-10-27T04:47:36.051Z,96.8
2022-10-27T04:48:52.321Z,96.7
2022-10-27T04:50:08.624Z,96.5
2022-10-27T04:51:24.919Z,96.6
2022-10-27T04:52:40.234Z,96.8
2022-10-27T04:53:56.513Z,97.9
2022-10-27T04:55:12.829Z,98.8
2022-10-27T04:56:29.111Z,99.1
2022-10-27T04:57:45.422Z,99.8
2022-10-27T04:59:01.707Z,100
2022-10-27T05:00:17.995Z,100
2022-10-27T05:01:34.289Z,100
2022-10-27T05:02:50.579Z,100
2022-10-27T05:04:06.881Z,100
2022-10-27T05:05:23.170Z,99.8
2022-10-27T05:06:39.456Z,99.1
2022-10-27T05:07:55.768Z,98.6
2022-10-27T05:09:11.073Z,98.4
2022-10-27T05:10:27.372Z,98
2022-10-27T05:11:43.662Z,97.8
2022-10-27T05:12:59.945Z,98.1
2022-10-27T05:14:16.247Z,98.5
2022-10-27T05:15:32.487Z,98.6
2022-10-27T05:16:48.779Z,98.6
2022-10-27T05:18:05.066Z,98.8
2022-10-27T05:19:21.316Z,99.3
2022-10-27T05:20:37.571Z,100
2022-10-27T05:21:53.865Z,100
2022-10-27T05:23:10.158Z,100
2022-10-27T05:24:26.394Z,100
2022-10-27T05:25:41.704Z,100
2022-10-27T05:26:57.973Z,100
2022-10-27T05:28:14.211Z,100
2022-10-27T05:29:30.453Z,100
2022-10-27T05:30:46.678Z,100
2022-10-27T05:32:02.933Z,100
2022-10-27T05:33:19.179Z,100
2022-10-27T05:34:35.401Z,100
2022-10-27T05:35:51.662Z,100
2022-10-27T05:37:07.883Z,100
2022-10-27T05:38:24.124Z,100
2022-10-27T05:39:40.381Z,100
2022-10-27T05:40:56.622Z,100
2022-10-27T05:42:11.868Z,100
2022-10-27T05:43:28.107Z,100
2022-10-27T05:44:44.351Z,100
2022-10-27T05:46:00.591Z,100
2022-10-27T05:47:16.814Z,100
2022-10-27T05:48:33.076Z,100
2022-10-27T05:49:49.312Z,100
2022-10-27T05:51:05.539Z,99.9
2022-10-27T05:52:21.791Z,99.1
2022-10-27T05:53:38.017Z,98.2
2022-10-27T05:54:54.263Z,97.6
2022-10-27T05:56:10.502Z,97.1
2022-10-27T05:57:26.741Z,96.6
2022-10-27T05:58:42.012Z,96.5
2022-10-27T05:59:58.264Z,96.4
2022-10-27T06:01:14.481Z,96.5
2022-10-27T06:02:30.729Z,96.5
2022-10-27T06:03:46.960Z,96.3
2022-10-27T06:05:03.198Z,96.4
2022-10-27T06:06:19.456Z,96.9
2022-10-27T06:07:35.675Z,96.8
2022-10-27T06:08:51.934Z,97.4
2022-10-27T06:10:08.174Z,97.7
2022-10-27T06:11:24.408Z,98.3
2022-10-27T06:12:40.654Z,99.5
2022-10-27T06:13:56.884Z,99
2022-10-27T06:15:12.135Z,98.8
2022-10-27T06:16:28.392Z,98.8
2022-10-27T06:17:44.627Z,98.5
2022-10-27T06:19:00.855Z,98.6
2022-10-27T06:20:17.097Z,98.6
2022-10-27T06:21:33.351Z,98.2
2022-10-27T06:22:49.588Z,97.8
2022-10-27T06:24:05.831Z,97.3
2022-10-27T06:25:22.064Z,96.8
2022-10-27T06:26:38.308Z,96.5
2022-10-27T06:27:54.553Z,96.3
2022-10-27T06:29:10.800Z,96.2
2022-10-27T06:30:27.031Z,96.2
2022-10-27T06:31:42.289Z,96
2022-10-27T06:32:58.514Z,96
2022-10-27T06:34:14.758Z,96
2022-10-27T06:35:31.011Z,96.4
2022-10-27T06:36:47.245Z,97.2
2022-10-27T06:38:03.495Z,97.8
2022-10-27T06:39:18.767Z,97.7
2022-10-27T06:40:34.994Z,97.9
2022-10-27T06:41:51.226Z,99.3
2022-10-27T06:43:07.477Z,99.5
2022-10-27T06:44:23.718Z,99.4
2022-10-27T06:45:39.962Z,100
2022-10-27T06:46:56.195Z,100
2022-10-27T06:48:12.430Z,100
2022-10-27T06:49:28.673Z,100
2022-10-27T06:50:44.910Z,100
2022-10-27T06:52:01.139Z,100
2022-10-27T06:53:17.387Z,100
2022-10-27T06:54:33.620Z,100
2022-10-27T06:55:48.882Z,100
2022-10-27T06:57:05.115Z,100
2022-10-27T06:58:21.365Z,100
2022-10-27T06:59:37.613Z,100
2022-10-27T07:00:53.855Z,100
2022-10-27T07:02:10.105Z,100
2022-10-27T07:03:26.333Z,100
2022-10-27T07:04:42.581Z,100
2022-10-27T07:05:58.814Z,100
2022-10-27T07:07:15.065Z,100
2022-10-27T07:08:31.286Z,100
2022-10-27T07:09:47.517Z,100
2022-10-27T07:11:03.771Z,100
2022-10-27T07:12:19.044Z,100
2022-10-27T07:13:35.254Z,100
2022-10-27T07:14:51.508Z,99.9
2022-10-27T07:16:07.746Z,99.7
2022-10-27T07:17:23.997Z,99.6
2022-10-27T07:18:40.227Z,99.3
2022-10-27T07:19:56.482Z,99.2
2022-10-27T07:21:12.709Z,99.1
2022-10-27T07:22:28.942Z,99
2022-10-27T07:23:45.184Z,98.8
2022-10-27T07:25:01.424Z,98.7
2022-10-27T07:26:17.684Z,98.5
2022-10-27T07:27:33.912Z,98.4
2022-10-27T07:28:49.158Z,98.3
2022-10-27T07:30:05.405Z,98.2
2022-10-27T07:31:21.635Z,98
2022-10-27T07:32:37.894Z,98.1
2022-10-27T07:33:54.140Z,98
2022-10-27T07:35:10.376Z,97.8
2022-10-27T07:36:26.611Z,97.7
2022-10-27T07:37:42.861Z,97.4
2022-10-27T07:38:59.083Z,97.4
2022-10-27T07:40:15.333Z,97.4
2022-10-27T07:41:31.572Z,97.1
2022-10-27T07:42:47.823Z,96.8
2022-10-27T07:44:04.052Z,96.3
2022-10-27T07:45:19.296Z,95.6
2022-10-27T07:46:35.543Z,93.2
2022-10-27T07:47:51.786Z,89.1
2022-10-27T07:49:08.020Z,84
2022-10-27T07:50:24.253Z,81.1
2022-10-27T07:51:40.495Z,77.2
2022-10-27T07:52:56.740Z,75
2022-10-27T07:54:12.974Z,72.6
2022-10-27T07:55:29.225Z,70.3
2022-10-27T07:56:45.470Z,68.7
2022-10-27T07:58:01.716Z,68
2022-10-27T07:59:17.946Z,65.7
2022-10-27T08:00:34.184Z,65.3
2022-10-27T08:01:49.430Z,65.1
2022-10-27T08:03:05.681Z,65.2
2022-10-27T08:04:21.931Z,66
2022-10-27T08:05:38.152Z,66.6
2022-10-27T08:06:54.401Z,66.3
2022-10-27T08:08:10.628Z,65.6
2022-10-27T08:09:26.881Z,65
2022-10-27T08:10:43.109Z,66.2
2022-10-27T08:11:59.357Z,64.3
2022-10-27T08:13:15.612Z,64.2
2022-10-27T08:14:31.838Z,63.1
2022-10-27T08:15:48.078Z,62.7
2022-10-27T08:17:04.313Z,61
2022-10-27T08:18:19.581Z,60.4
2022-10-27T08:19:35.820Z,57.8
2022-10-27T08:20:52.045Z,57.3
2022-10-27T08:22:08.299Z,56.9
2022-10-27T08:23:24.525Z,55.8
2022-10-27T08:24:40.782Z,56.1
2022-10-27T08:25:57.013Z,56.1
2022-10-27T08:27:13.258Z,55.1
2022-10-27T08:28:29.495Z,54.1
2022-10-27T08:29:45.737Z,53.6
2022-10-27T08:31:01.976Z,52.1
2022-10-27T08:32:18.224Z,52.5
2022-10-27T08:33:34.473Z,51.7
2022-10-27T08:34:49.732Z,51.8
2022-10-27T08:36:05.974Z,52.6
2022-10-27T08:37:22.200Z,52.3
2022-10-27T08:38:38.425Z,51.2
2022-10-27T08:39:54.684Z,51.6
2022-10-27T08:41:10.925Z,53.3
2022-10-27T08:42:27.173Z,53.6
2022-10-27T08:43:43.409Z,51.6
2022-10-27T08:44:59.639Z,53.9
2022-10-27T08:46:15.889Z,55
2022-10-27T08:47:32.110Z,55.2
2022-10-27T08:48:48.355Z,55.6
2022-10-27T08:50:04.604Z,54.3
2022-10-27T08:51:19.869Z,56
2022-10-27T08:52:36.089Z,55.2
2022-10-27T08:53:52.338Z,55.2
2022-10-27T08:55:08.584Z,55
2022-10-27T08:56:24.832Z,54.4
2022-10-27T08:57:41.077Z,52.3
2022-10-27T08:58:57.297Z,52.8
2022-10-27T09:00:13.551Z,52.3
2022-10-27T09:01:29.773Z,51.3
2022-10-27T09:02:46.000Z,51
2022-10-27T09:04:02.259Z,51.5
2022-10-27T09:05:18.527Z,50.2
2022-10-27T09:06:34.745Z,51.3
2022-10-27T09:07:49.994Z,50.7
2022-10-27T09:09:06.241Z,51.2
2022-10-27T09:10:22.481Z,53
2022-10-27T09:11:38.733Z,53.6
2022-10-27T09:12:54.972Z,54.8
2022-10-27T09:14:11.209Z,56.3
2022-10-27T09:15:27.452Z,55.4
2022-10-27T09:16:43.699Z,54.4
2022-10-27T09:17:59.946Z,52.8
2022-10-27T09:19:16.184Z,53.3
2022-10-27T09:20:32.408Z,53
2022-10-27T09:21:48.673Z,53
2022-10-27T09:23:04.898Z,54.2
2022-10-27T09:24:20.150Z,54.3
2022-10-27T09:25:36.387Z,51.5
2022-10-27T09:26:52.636Z,52
2022-10-27T09:28:08.878Z,51
2022-10-27T09:29:25.125Z,50.8
2022-10-27T09:30:41.358Z,50.8
2022-10-27T09:31:57.616Z,50.5
2022-10-27T09:33:13.851Z,51.8
2022-10-27T09:34:30.093Z,52.2
2022-10-27T09:35:46.347Z,52.1
2022-10-27T09:37:02.562Z,53.3
2022-10-27T09:38:18.802Z,53.5
2022-10-27T09:39:35.043Z,53.6
2022-10-27T09:40:50.313Z,53
2022-10-27T09:42:06.562Z,53.6
2022-10-27T09:43:22.804Z,52.5
2022-10-27T09:44:39.038Z,51.9
2022-10-27T09:45:55.276Z,51.6
2022-10-27T09:47:11.523Z,50.3
2022-10-27T09:48:27.751Z,51
2022-10-27T09:49:43.998Z,51.1
2022-10-27T09:51:00.249Z,52.7
2022-10-27T09:52:16.485Z,51.6
2022-10-27T09:53:32.725Z,52.3
2022-10-27T09:54:48.960Z,52.2
2022-10-27T09:56:05.205Z,52
2022-10-27T09:57:20.450Z,50.6
2022-10-27T09:58:36.713Z,50
2022-10-27T09:59:52.943Z,49.2
2022-10-27T10:01:09.182Z,49.9
2022-10-27T10:02:25.420Z,50.1
2022-10-27T10:03:41.671Z,49.1
2022-10-27T10:04:57.913Z,48.7
2022-10-27T10:06:14.147Z,47.8
2022-10-27T10:07:30.398Z,48.1
2022-10-27T10:08:46.632Z,48.6
2022-10-27T10:10:02.872Z,49.1
2022-10-27T10:11:19.113Z,48.1
2022-10-27T10:12:35.363Z,46.3
2022-10-27T10:13:50.604Z,46.7
2022-10-27T10:15:06.853Z,46.1
2022-10-27T10:16:23.088Z,46.2
2022-10-27T10:17:39.000Z,45.7
2022-10-27T10:18:55.588Z,45.3
2022-10-27T10:20:11.833Z,45.2
2022-10-27T10:21:28.080Z,45.1
2022-10-27T10:22:44.309Z,45.1
2022-10-27T10:24:00.538Z,43.9
2022-10-27T10:25:16.792Z,44.4
2022-10-27T10:26:33.031Z,44.8
2022-10-27T10:27:49.287Z,45.8
2022-10-27T10:29:05.507Z,47.4
2022-10-27T10:30:20.761Z,46.1
2022-10-27T10:31:37.002Z,46.6
2022-10-27T10:32:53.261Z,47.8
2022-10-27T10:34:09.495Z,49
2022-10-27T10:35:25.737Z,50.3
2022-10-27T10:36:41.965Z,49.8
2022-10-27T10:37:58.227Z,50
2022-10-27T10:39:14.465Z,49.4
2022-10-27T10:40:30.709Z,50.9
2022-10-27T10:41:46.938Z,52
2022-10-27T10:43:03.192Z,53.1
2022-10-27T10:44:19.431Z,53.9
2022-10-27T10:45:35.661Z,54.9
2022-10-27T10:46:50.929Z,54
2022-10-27T10:48:07.164Z,54.7
2022-10-27T10:49:23.398Z,54.5
2022-10-27T10:50:39.640Z,54.2
2022-10-27T10:51:55.881Z,54.5
2022-10-27T10:53:12.124Z,54.8
2022-10-27T10:54:27.402Z,54.9
2022-10-27T10:55:43.623Z,54.1
2022-10-27T10:56:59.880Z,55.1
2022-10-27T10:58:16.107Z,56.3
2022-10-27T10:59:32.356Z,57.5
2022-10-27T11:00:48.599Z,58.2
2022-10-27T11:02:04.848Z,58.5
2022-10-27T11:03:21.077Z,58.4
2022-10-27T11:04:37.332Z,59.4
2022-10-27T11:05:53.567Z,58
2022-10-27T11:07:09.814Z,58.2
2022-10-27T11:08:26.037Z,58
2022-10-27T11:09:42.292Z,58.1
2022-10-27T11:10:57.537Z,58.4
2022-10-27T11:12:13.775Z,59
2022-10-27T11:13:30.028Z,59.4
2022-10-27T11:14:46.272Z,60.8
2022-10-27T11:16:02.497Z,61.5
2022-10-27T11:17:18.740Z,62.2
2022-10-27T11:18:34.982Z,62.1
2022-10-27T11:19:51.218Z,62.4
2022-10-27T11:21:07.472Z,61.7
2022-10-27T11:22:23.705Z,61
2022-10-27T11:23:39.948Z,61
2022-10-27T11:24:56.188Z,59.3
2022-10-27T11:26:12.427Z,58.8
2022-10-27T11:27:27.695Z,58.5
2022-10-27T11:28:43.922Z,57
2022-10-27T11:30:00.169Z,57
2022-10-27T11:31:16.399Z,58.6
2022-10-27T11:32:32.657Z,59.2
2022-10-27T11:33:48.896Z,59.9
2022-10-27T11:35:05.139Z,60.9
2022-10-27T11:36:21.378Z,60.6
2022-10-27T11:37:37.604Z,61.8
2022-10-27T11:38:53.850Z,62.1
2022-10-27T11:40:10.102Z,62.2
2022-10-27T11:41:26.337Z,62.2
2022-10-27T11:42:42.581Z,61.9
2022-10-27T11:43:57.824Z,62.6
2022-10-27T11:45:14.072Z,62.8
2022-10-27T11:46:30.321Z,62.7
2022-10-27T11:47:46.541Z,62.7
2022-10-27T11:49:02.785Z,63
2022-10-27T11:50:19.030Z,63.2
2022-10-27T11:51:35.275Z,62.2
2022-10-27T11:52:51.521Z,61.7
2022-10-27T11:54:07.750Z,61.7
2022-10-27T11:55:23.991Z,61.3
2022-10-27T11:56:40.242Z,62.1
2022-10-27T11:57:56.470Z,61.9
2022-10-27T11:59:12.711Z,62.6
2022-10-27T12:00:27.962Z,62.9
2022-10-27T12:01:44.218Z,62.6
2022-10-27T12:03:00.442Z,62.8
2022-10-27T12:04:16.700Z,61.8
2022-10-27T12:05:32.935Z,62.3
2022-10-27T12:06:49.162Z,63.6
2022-10-27T12:08:05.415Z,63.1
2022-10-27T12:09:21.647Z,63
2022-10-27T12:10:37.898Z,61.5
2022-10-27T12:11:54.128Z,60.5
2022-10-27T12:13:10.373Z,60.3
2022-10-27T12:14:26.615Z,58.7
2022-10-27T12:15:42.847Z,57.4
2022-10-27T12:16:58.106Z,56.1
2022-10-27T12:18:14.353Z,55.9
2022-10-27T12:19:30.591Z,56.3
2022-10-27T12:20:46.821Z,55.9
2022-10-27T12:22:03.080Z,56.9
2022-10-27T12:23:19.310Z,57.2
2022-10-27T12:24:35.560Z,57.7
2022-10-27T12:25:51.794Z,58.7
2022-10-27T12:27:08.029Z,58.9
2022-10-27T12:28:24.284Z,58.2
2022-10-27T12:29:40.510Z,58.3
2022-10-27T12:30:56.755Z,58.1
2022-10-27T12:32:12.994Z,57.8
2022-10-27T12:33:28.256Z,56.5
2022-10-27T12:34:44.497Z,56.1
2022-10-27T12:36:00.724Z,56
2022-10-27T12:37:16.964Z,55.2
2022-10-27T12:38:33.226Z,54.5
2022-10-27T12:39:49.454Z,54.2
2022-10-27T12:41:05.700Z,54.2
2022-10-27T12:42:21.926Z,54.3
2022-10-27T12:43:38.177Z,54.2
2022-10-27T12:44:54.406Z,54.9
2022-10-27T12:46:10.654Z,55.2
2022-10-27T12:47:26.891Z,55.8
2022-10-27T12:48:43.128Z,55.6
2022-10-27T12:49:58.401Z,55.6
2022-10-27T12:51:14.643Z,54.6
2022-10-27T12:52:30.865Z,54.7
2022-10-27T12:53:47.114Z,55.2
2022-10-27T12:55:03.360Z,55.9
2022-10-27T12:56:19.595Z,56.1
2022-10-27T12:57:35.837Z,56.9
2022-10-27T12:58:52.072Z,58.2
2022-10-27T13:00:08.319Z,59
2022-10-27T13:01:24.550Z,59.4
2022-10-27T13:02:40.798Z,60.5
2022-10-27T13:03:57.049Z,60.6
2022-10-27T13:05:13.271Z,61.2
2022-10-27T13:06:28.528Z,61.2
2022-10-27T13:07:44.777Z,60.7
2022-10-27T13:09:01.008Z,60.7
2022-10-27T13:10:17.267Z,60.8
2022-10-27T13:11:33.491Z,61.7
2022-10-27T13:12:49.735Z,61
2022-10-27T13:14:05.975Z,60.8
2022-10-27T13:15:22.209Z,60.1
2022-10-27T13:16:38.456Z,60.6
2022-10-27T13:17:54.699Z,59.8
2022-10-27T13:19:10.942Z,60.8
2022-10-27T13:20:27.181Z,60.1
2022-10-27T13:21:43.414Z,60
2022-10-27T13:22:58.670Z,59.2
2022-10-27T13:24:14.908Z,58.8
2022-10-27T13:25:31.000Z,58.5
2022-10-27T13:26:47.398Z,58.2
2022-10-27T13:28:03.637Z,56.7
2022-10-27T13:29:19.873Z,54.5
2022-10-27T13:30:36.111Z,52.8
2022-10-27T13:31:52.363Z,52.2
2022-10-27T13:33:08.606Z,51.9
2022-10-27T13:34:24.832Z,50.7
2022-10-27T13:35:41.088Z,49.9
2022-10-27T13:36:57.323Z,49.8
2022-10-27T13:38:13.554Z,47.9
2022-10-27T13:39:28.815Z,47
2022-10-27T13:40:45.048Z,45.5
2022-10-27T13:42:01.305Z,45.4
2022-10-27T13:43:17.527Z,44.7
2022-10-27T13:44:33.767Z,45
2022-10-27T13:45:50.007Z,46.5
2022-10-27T13:47:06.254Z,46.6
2022-10-27T13:48:22.496Z,47
2022-10-27T13:49:38.740Z,47.3
2022-10-27T13:50:54.970Z,48.5
2022-10-27T13:52:11.211Z,49.2
2022-10-27T13:53:27.451Z,50.1
2022-10-27T13:54:43.705Z,50.8
2022-10-27T13:55:58.950Z,51.8
2022-10-27T13:57:15.202Z,52
2022-10-27T13:58:31.430Z,51.9
2022-10-27T13:59:47.672Z,52
2022-10-27T14:01:03.915Z,53.3
2022-10-27T14:02:20.142Z,54.6
2022-10-27T14:03:36.395Z,55.7
2022-10-27T14:04:52.633Z,56.6
2022-10-27T14:06:08.881Z,57.5
2022-10-27T14:07:25.124Z,57.9
2022-10-27T14:08:41.351Z,59.3
2022-10-27T14:09:57.587Z,59.4
2022-10-27T14:11:13.832Z,59.4
2022-10-27T14:12:29.091Z,59.2
2022-10-27T14:13:45.327Z,59.4
2022-10-27T14:15:01.571Z,60.2
2022-10-27T14:16:17.815Z,60.1
2022-10-27T14:17:34.047Z,60.5
2022-10-27T14:18:50.289Z,61.2
2022-10-27T14:20:06.540Z,61.4
2022-10-27T14:21:22.778Z,61.4
2022-10-27T14:22:39.004Z,61
2022-10-27T14:23:55.255Z,61.1
2022-10-27T14:25:11.499Z,61.1
2022-10-27T14:26:27.741Z,61.7
2022-10-27T14:27:43.970Z,62.1
2022-10-27T14:28:59.233Z,62
2022-10-27T14:30:15.474Z,62
2022-10-27T14:31:31.715Z,61.7
2022-10-27T14:32:47.952Z,61.7
2022-10-27T14:34:04.193Z,61.4
2022-10-27T14:35:20.431Z,61.5
2022-10-27T14:36:36.678Z,61.5
2022-10-27T14:37:52.899Z,61.4
2022-10-27T14:39:09.145Z,61.7
2022-10-27T14:40:25.385Z,62.6
2022-10-27T14:41:41.616Z,61.7
2022-10-27T14:42:57.872Z,62.1
2022-10-27T14:44:14.106Z,62.1
2022-10-27T14:45:29.366Z,62.5
2022-10-27T14:46:45.617Z,62.8
2022-10-27T14:48:01.848Z,62.6
2022-10-27T14:49:18.082Z,63.4
2022-10-27T14:50:34.322Z,63.3
2022-10-27T14:51:50.561Z,63
2022-10-27T14:53:06.802Z,63.1
2022-10-27T14:54:23.031Z,63.1
2022-10-27T14:55:39.280Z,63.4
2022-10-27T14:56:55.526Z,63.4
2022-10-27T14:58:11.752Z,63.3
2022-10-27T14:59:28.019Z,63.8
2022-10-27T15:00:44.237Z,63.8
2022-10-27T15:01:59.498Z,63.9
2022-10-27T15:03:15.744Z,64.1
2022-10-27T15:04:31.967Z,64.2
2022-10-27T15:05:48.213Z,64.5
2022-10-27T15:07:04.451Z,64.8
2022-10-27T15:08:20.688Z,64.9
2022-10-27T15:09:35.961Z,64.6
2022-10-27T15:10:52.203Z,65.3
2022-10-27T15:12:08.437Z,65.7
2022-10-27T15:13:24.678Z,66.4
2022-10-27T15:14:40.923Z,66.2
2022-10-27T15:15:57.160Z,66.5
2022-10-27T15:17:13.397Z,66.4
2022-10-27T15:18:29.629Z,66.6
2022-10-27T15:19:45.883Z,67.5
2022-10-27T15:21:02.125Z,66.6
2022-10-27T15:22:18.367Z,67.6
2022-10-27T15:23:34.609Z,67.6
2022-10-27T15:24:50.837Z,67.6
2022-10-27T15:26:06.096Z,67.3
2022-10-27T15:27:22.340Z,68.3
2022-10-27T15:29:54.820Z,69.6
2022-10-27T15:31:11.067Z,68.9
2022-10-27T15:32:27.304Z,70.9
2022-10-27T15:33:43.544Z,71.6
2022-10-27T15:34:59.770Z,72
2022-10-27T15:36:16.009Z,72.7
2022-10-27T15:37:32.268Z,72.7
2022-10-27T15:38:48.504Z,73.4
2022-10-27T15:40:04.751Z,73.5
2022-10-27T15:41:20.969Z,74.5
2022-10-27T15:42:36.231Z,74.8
2022-10-27T15:43:52.472Z,74.8
2022-10-27T15:45:08.720Z,75.6
2022-10-27T15:46:24.951Z,76.4
2022-10-27T15:47:41.202Z,76.7
2022-10-27T15:48:57.432Z,77.3
2022-10-27T15:50:13.680Z,77
2022-10-27T15:51:29.910Z,77.3
2022-10-27T15:52:46.152Z,77.9
2022-10-27T15:54:02.400Z,78.4
2022-10-27T15:55:18.626Z,78.2
2022-10-27T15:56:34.885Z,78.3
2022-10-27T15:57:51.113Z,78.6
2022-10-27T15:59:06.377Z,79.4
2022-10-27T16:00:22.613Z,79.6
2022-10-27T16:01:38.856Z,79.8
2022-10-27T16:02:55.108Z,80
2022-10-27T16:04:11.332Z,79.8
2022-10-27T16:05:27.571Z,80.3
2022-10-27T16:06:43.820Z,80.5
2022-10-27T16:08:00.047Z,80.6
2022-10-27T16:09:16.294Z,80.5
2022-10-27T16:10:32.547Z,80.4
2022-10-27T16:11:48.780Z,80.5
2022-10-27T16:13:05.002Z,80.1
2022-10-27T16:14:21.257Z,80.3
2022-10-27T16:15:36.512Z,80.2
2022-10-27T16:16:52.743Z,80.3
2022-10-27T16:18:08.980Z,80.7
2022-10-27T16:19:25.231Z,80.8
2022-10-27T16:20:41.490Z,81.2
2022-10-27T16:21:57.704Z,81
2022-10-27T16:23:14.017Z,81
2022-10-27T16:24:30.289Z,81.4
2022-10-27T16:25:46.584Z,81.4
2022-10-27T16:27:02.892Z,82.1
2022-10-27T16:28:19.184Z,82.5
2022-10-27T16:29:35.481Z,82.5
2022-10-27T16:30:51.785Z,82.8
2022-10-27T16:32:07.088Z,82.6
2022-10-27T16:33:23.382Z,82.8
2022-10-27T16:34:39.655Z,82.8
2022-10-27T16:35:55.963Z,82.8
2022-10-27T16:37:12.263Z,83
2022-10-27T16:38:28.537Z,83.2
2022-10-27T16:39:44.844Z,83
2022-10-27T16:41:01.139Z,83.5
2022-10-27T16:42:17.439Z,83.5
2022-10-27T16:43:33.717Z,83.7
2022-10-27T16:44:50.024Z,83.9
2022-10-27T16:46:06.309Z,84.1
2022-10-27T16:47:22.602Z,84.2
2022-10-27T16:48:37.908Z,84.3
2022-10-27T16:49:54.216Z,84.2
2022-10-27T16:51:10.509Z,84.4
2022-10-27T16:52:26.793Z,84.6
2022-10-27T16:53:43.080Z,84.7
2022-10-27T16:54:59.390Z,84.8
2022-10-27T16:56:15.678Z,84.6
2022-10-27T16:57:31.989Z,84.8
2022-10-27T16:58:48.286Z,85
2022-10-27T17:00:04.553Z,84.6
2022-10-27T17:01:20.871Z,84.3
2022-10-27T17:02:37.153Z,84.5
2022-10-27T17:03:53.442Z,84.3
2022-10-27T17:05:08.764Z,84.1
2022-10-27T17:06:25.058Z,83.6
2022-10-27T17:07:41.331Z,83.6